sensor_id;sensor_type;location;lat;lon;timestamp;temperature;humidity
45765;DHT22;31474;45.332;10.230;2023-04-28T00:00:52;14.90;93.00
45765;DHT22;31474;45.332;10.230;2023-04-28T00:03:18;14.80;93.00
45765;DHT22;31474;45.332;10.230;2023-04-28T00:05:44;14.70;93.10
45765;DHT22;31474;45.332;10.230;2023-04-28T00:08:09;14.80;93.10
45765;DHT22;31474;45.332;10.230;2023-04-28T00:10:35;14.80;93.10
45765;DHT22;31474;45.332;10.230;2023-04-28T00:13:01;14.80;93.20
45765;DHT22;31474;45.332;10.230;2023-04-28T00:15:26;14.90;93.10
45765;DHT22;31474;45.332;10.230;2023-04-28T00:17:52;14.80;92.90
45765;DHT22;31474;45.332;10.230;2023-04-28T00:20:18;14.90;93.20
45765;DHT22;31474;45.332;10.230;2023-04-28T00:22:44;14.90;93.00
45765;DHT22;31474;45.332;10.230;2023-04-28T00:25:09;14.90;92.90
45765;DHT22;31474;45.332;10.230;2023-04-28T00:27:35;15.00;92.80
45765;DHT22;31474;45.332;10.230;2023-04-28T00:30:01;14.90;92.80
45765;DHT22;31474;45.332;10.230;2023-04-28T00:32:27;14.90;92.90
45765;DHT22;31474;45.332;10.230;2023-04-28T00:34:52;14.80;92.90
45765;DHT22;31474;45.332;10.230;2023-04-28T00:37:19;14.90;93.10
45765;DHT22;31474;45.332;10.230;2023-04-28T00:39:44;14.80;93.00
45765;DHT22;31474;45.332;10.230;2023-04-28T00:42:12;14.80;93.10
45765;DHT22;31474;45.332;10.230;2023-04-28T00:44:38;14.80;93.20
45765;DHT22;31474;45.332;10.230;2023-04-28T00:47:05;14.90;93.40
45765;DHT22;31474;45.332;10.230;2023-04-28T00:49:31;14.80;93.30
45765;DHT22;31474;45.332;10.230;2023-04-28T00:52:00;14.90;93.10
45765;DHT22;31474;45.332;10.230;2023-04-28T00:54:29;14.90;93.60
45765;DHT22;31474;45.332;10.230;2023-04-28T00:56:55;14.80;93.40
45765;DHT22;31474;45.332;10.230;2023-04-28T00:59:21;14.80;93.70
45765;DHT22;31474;45.332;10.230;2023-04-28T01:01:48;14.70;93.30
45765;DHT22;31474;45.332;10.230;2023-04-28T01:04:15;14.70;93.80
45765;DHT22;31474;45.332;10.230;2023-04-28T01:06:45;14.70;93.70
45765;DHT22;31474;45.332;10.230;2023-04-28T01:09:11;14.70;93.60
45765;DHT22;31474;45.332;10.230;2023-04-28T01:11:37;14.60;93.90
45765;DHT22;31474;45.332;10.230;2023-04-28T01:14:03;14.60;94.00
45765;DHT22;31474;45.332;10.230;2023-04-28T01:16:29;14.70;94.00
45765;DHT22;31474;45.332;10.230;2023-04-28T01:18:56;14.60;93.70
45765;DHT22;31474;45.332;10.230;2023-04-28T01:21:30;14.60;94.40
45765;DHT22;31474;45.332;10.230;2023-04-28T01:24:00;14.60;94.60
45765;DHT22;31474;45.332;10.230;2023-04-28T01:26:26;14.50;94.20
45765;DHT22;31474;45.332;10.230;2023-04-28T01:28:52;14.50;94.70
45765;DHT22;31474;45.332;10.230;2023-04-28T01:31:17;14.50;94.40
45765;DHT22;31474;45.332;10.230;2023-04-28T01:33:43;14.50;94.80
45765;DHT22;31474;45.332;10.230;2023-04-28T01:36:09;14.50;95.00
45765;DHT22;31474;45.332;10.230;2023-04-28T01:38:35;14.50;94.90
45765;DHT22;31474;45.332;10.230;2023-04-28T01:41:00;14.50;94.70
45765;DHT22;31474;45.332;10.230;2023-04-28T01:43:27;14.50;94.60
45765;DHT22;31474;45.332;10.230;2023-04-28T01:45:53;14.50;94.60
45765;DHT22;31474;45.332;10.230;2023-04-28T01:48:18;14.50;94.60
45765;DHT22;31474;45.332;10.230;2023-04-28T01:50:44;14.50;94.30
45765;DHT22;31474;45.332;10.230;2023-04-28T01:53:10;14.50;94.90
45765;DHT22;31474;45.332;10.230;2023-04-28T01:55:37;14.50;94.50
45765;DHT22;31474;45.332;10.230;2023-04-28T01:58:03;14.60;94.40
45765;DHT22;31474;45.332;10.230;2023-04-28T02:00:29;14.60;94.20
45765;DHT22;31474;45.332;10.230;2023-04-28T02:02:55;14.60;93.80
45765;DHT22;31474;45.332;10.230;2023-04-28T02:05:20;14.60;93.90
45765;DHT22;31474;45.332;10.230;2023-04-28T02:07:46;14.50;93.70
45765;DHT22;31474;45.332;10.230;2023-04-28T02:10:11;14.50;93.90
45765;DHT22;31474;45.332;10.230;2023-04-28T02:12:37;14.50;93.30
45765;DHT22;31474;45.332;10.230;2023-04-28T02:15:03;14.40;93.90
45765;DHT22;31474;45.332;10.230;2023-04-28T02:17:29;14.40;93.70
45765;DHT22;31474;45.332;10.230;2023-04-28T02:19:55;14.40;93.80
45765;DHT22;31474;45.332;10.230;2023-04-28T02:22:21;14.40;94.00
45765;DHT22;31474;45.332;10.230;2023-04-28T02:24:47;14.40;93.80
45765;DHT22;31474;45.332;10.230;2023-04-28T02:27:12;14.40;93.80
45765;DHT22;31474;45.332;10.230;2023-04-28T02:29:38;14.40;93.40
45765;DHT22;31474;45.332;10.230;2023-04-28T02:32:04;14.40;93.70
45765;DHT22;31474;45.332;10.230;2023-04-28T02:34:29;14.40;94.00
45765;DHT22;31474;45.332;10.230;2023-04-28T02:36:55;14.40;94.30
45765;DHT22;31474;45.332;10.230;2023-04-28T02:39:21;14.40;94.30
45765;DHT22;31474;45.332;10.230;2023-04-28T02:41:49;14.30;94.30
45765;DHT22;31474;45.332;10.230;2023-04-28T02:44:16;14.20;94.30
45765;DHT22;31474;45.332;10.230;2023-04-28T02:46:41;14.10;94.30
45765;DHT22;31474;45.332;10.230;2023-04-28T02:49:07;14.00;94.20
45765;DHT22;31474;45.332;10.230;2023-04-28T02:51:32;14.00;94.20
45765;DHT22;31474;45.332;10.230;2023-04-28T02:53:58;13.90;94.10
45765;DHT22;31474;45.332;10.230;2023-04-28T02:56:24;13.90;94.30
45765;DHT22;31474;45.332;10.230;2023-04-28T02:58:49;13.90;94.60
45765;DHT22;31474;45.332;10.230;2023-04-28T03:01:15;13.90;94.30
45765;DHT22;31474;45.332;10.230;2023-04-28T03:03:41;13.80;94.10
45765;DHT22;31474;45.332;10.230;2023-04-28T03:06:06;13.80;94.30
45765;DHT22;31474;45.332;10.230;2023-04-28T03:08:32;13.70;94.50
45765;DHT22;31474;45.332;10.230;2023-04-28T03:10:58;13.70;94.50
45765;DHT22;31474;45.332;10.230;2023-04-28T03:13:23;13.50;94.50
45765;DHT22;31474;45.332;10.230;2023-04-28T03:15:49;13.40;94.70
45765;DHT22;31474;45.332;10.230;2023-04-28T03:18:15;13.40;94.80
45765;DHT22;31474;45.332;10.230;2023-04-28T03:20:41;13.50;94.60
45765;DHT22;31474;45.332;10.230;2023-04-28T03:23:07;13.50;94.90
45765;DHT22;31474;45.332;10.230;2023-04-28T03:25:32;13.50;94.80
45765;DHT22;31474;45.332;10.230;2023-04-28T03:27:58;13.40;94.70
45765;DHT22;31474;45.332;10.230;2023-04-28T03:30:24;13.40;94.80
45765;DHT22;31474;45.332;10.230;2023-04-28T03:32:49;13.40;94.80
45765;DHT22;31474;45.332;10.230;2023-04-28T03:35:15;13.20;94.70
45765;DHT22;31474;45.332;10.230;2023-04-28T03:37:41;13.20;94.80
45765;DHT22;31474;45.332;10.230;2023-04-28T03:40:07;13.30;94.70
45765;DHT22;31474;45.332;10.230;2023-04-28T03:42:32;13.40;94.80
45765;DHT22;31474;45.332;10.230;2023-04-28T03:44:58;13.50;94.60
45765;DHT22;31474;45.332;10.230;2023-04-28T03:47:24;13.50;95.00
45765;DHT22;31474;45.332;10.230;2023-04-28T03:49:49;13.50;94.60
45765;DHT22;31474;45.332;10.230;2023-04-28T03:52:15;13.40;94.40
45765;DHT22;31474;45.332;10.230;2023-04-28T03:54:41;13.30;94.40
45765;DHT22;31474;45.332;10.230;2023-04-28T03:57:06;13.20;94.50
45765;DHT22;31474;45.332;10.230;2023-04-28T03:59:32;13.20;94.60
45765;DHT22;31474;45.332;10.230;2023-04-28T04:01:57;13.20;94.60
45765;DHT22;31474;45.332;10.230;2023-04-28T04:04:23;13.20;94.70
45765;DHT22;31474;45.332;10.230;2023-04-28T04:06:49;13.00;94.80
45765;DHT22;31474;45.332;10.230;2023-04-28T04:09:14;13.00;94.90
45765;DHT22;31474;45.332;10.230;2023-04-28T04:11:40;13.10;95.00
45765;DHT22;31474;45.332;10.230;2023-04-28T04:14:06;13.10;95.00
45765;DHT22;31474;45.332;10.230;2023-04-28T04:16:31;13.00;94.90
45765;DHT22;31474;45.332;10.230;2023-04-28T04:18:57;13.00;95.00
45765;DHT22;31474;45.332;10.230;2023-04-28T04:21:23;13.00;95.00
45765;DHT22;31474;45.332;10.230;2023-04-28T04:23:48;13.00;95.30
45765;DHT22;31474;45.332;10.230;2023-04-28T04:26:14;13.00;95.30
45765;DHT22;31474;45.332;10.230;2023-04-28T04:28:40;13.00;95.30
45765;DHT22;31474;45.332;10.230;2023-04-28T04:31:05;13.10;95.20
45765;DHT22;31474;45.332;10.230;2023-04-28T04:33:31;13.00;95.30
45765;DHT22;31474;45.332;10.230;2023-04-28T04:35:58;13.10;95.30
45765;DHT22;31474;45.332;10.230;2023-04-28T04:38:24;13.10;95.50
45765;DHT22;31474;45.332;10.230;2023-04-28T04:40:50;13.10;95.30
45765;DHT22;31474;45.332;10.230;2023-04-28T04:43:16;13.10;95.40
45765;DHT22;31474;45.332;10.230;2023-04-28T04:45:41;13.10;95.60
45765;DHT22;31474;45.332;10.230;2023-04-28T04:48:07;13.20;95.70
45765;DHT22;31474;45.332;10.230;2023-04-28T04:50:32;13.20;95.70
45765;DHT22;31474;45.332;10.230;2023-04-28T04:52:58;13.20;95.60
45765;DHT22;31474;45.332;10.230;2023-04-28T04:55:24;13.30;95.60
45765;DHT22;31474;45.332;10.230;2023-04-28T04:57:49;13.30;95.60
45765;DHT22;31474;45.332;10.230;2023-04-28T05:00:16;13.40;96.00
45765;DHT22;31474;45.332;10.230;2023-04-28T05:02:42;13.30;95.70
45765;DHT22;31474;45.332;10.230;2023-04-28T05:05:08;13.20;95.70
45765;DHT22;31474;45.332;10.230;2023-04-28T05:07:34;13.20;95.90
45765;DHT22;31474;45.332;10.230;2023-04-28T05:10:00;13.20;96.20
45765;DHT22;31474;45.332;10.230;2023-04-28T05:12:25;13.20;96.00
45765;DHT22;31474;45.332;10.230;2023-04-28T05:14:51;13.30;96.00
45765;DHT22;31474;45.332;10.230;2023-04-28T05:17:17;13.30;95.50
45765;DHT22;31474;45.332;10.230;2023-04-28T05:19:43;13.50;95.60
45765;DHT22;31474;45.332;10.230;2023-04-28T05:22:09;13.60;95.60
45765;DHT22;31474;45.332;10.230;2023-04-28T05:24:35;13.80;95.40
45765;DHT22;31474;45.332;10.230;2023-04-28T05:27:01;13.90;95.30
45765;DHT22;31474;45.332;10.230;2023-04-28T05:29:27;13.90;95.40
45765;DHT22;31474;45.332;10.230;2023-04-28T05:31:52;14.00;95.20
45765;DHT22;31474;45.332;10.230;2023-04-28T05:34:18;14.10;94.90
45765;DHT22;31474;45.332;10.230;2023-04-28T05:36:43;14.20;95.20
45765;DHT22;31474;45.332;10.230;2023-04-28T05:39:09;14.10;95.00
45765;DHT22;31474;45.332;10.230;2023-04-28T05:41:35;14.10;94.80
45765;DHT22;31474;45.332;10.230;2023-04-28T05:44:01;14.00;94.80
45765;DHT22;31474;45.332;10.230;2023-04-28T05:46:27;14.00;95.00
45765;DHT22;31474;45.332;10.230;2023-04-28T05:48:52;14.00;95.00
45765;DHT22;31474;45.332;10.230;2023-04-28T05:51:18;14.00;95.20
45765;DHT22;31474;45.332;10.230;2023-04-28T05:53:44;14.10;95.60
45765;DHT22;31474;45.332;10.230;2023-04-28T05:56:13;14.00;96.00
45765;DHT22;31474;45.332;10.230;2023-04-28T05:58:39;14.00;96.20
45765;DHT22;31474;45.332;10.230;2023-04-28T06:01:05;14.10;95.90
45765;DHT22;31474;45.332;10.230;2023-04-28T06:03:31;14.30;95.60
45765;DHT22;31474;45.332;10.230;2023-04-28T06:05:56;14.30;95.20
45765;DHT22;31474;45.332;10.230;2023-04-28T06:08:22;14.30;95.70
45765;DHT22;31474;45.332;10.230;2023-04-28T06:10:47;14.30;96.20
45765;DHT22;31474;45.332;10.230;2023-04-28T06:13:13;14.30;96.50
45765;DHT22;31474;45.332;10.230;2023-04-28T06:15:39;14.40;96.60
45765;DHT22;31474;45.332;10.230;2023-04-28T06:18:04;14.40;96.70
45765;DHT22;31474;45.332;10.230;2023-04-28T06:20:31;14.50;96.90
45765;DHT22;31474;45.332;10.230;2023-04-28T06:22:57;14.60;96.40
45765;DHT22;31474;45.332;10.230;2023-04-28T06:25:23;14.60;96.70
45765;DHT22;31474;45.332;10.230;2023-04-28T06:27:48;14.80;96.90
45765;DHT22;31474;45.332;10.230;2023-04-28T06:30:18;14.80;96.60
45765;DHT22;31474;45.332;10.230;2023-04-28T06:32:46;14.90;96.80
45765;DHT22;31474;45.332;10.230;2023-04-28T06:35:13;14.90;96.40
45765;DHT22;31474;45.332;10.230;2023-04-28T06:37:38;14.90;96.70
45765;DHT22;31474;45.332;10.230;2023-04-28T06:40:04;15.00;96.60
45765;DHT22;31474;45.332;10.230;2023-04-28T06:42:30;15.10;96.50
45765;DHT22;31474;45.332;10.230;2023-04-28T06:44:56;15.20;96.40
45765;DHT22;31474;45.332;10.230;2023-04-28T06:47:22;15.30;96.80
45765;DHT22;31474;45.332;10.230;2023-04-28T06:49:47;15.30;96.40
45765;DHT22;31474;45.332;10.230;2023-04-28T06:52:14;15.40;96.90
45765;DHT22;31474;45.332;10.230;2023-04-28T06:54:40;15.50;96.30
45765;DHT22;31474;45.332;10.230;2023-04-28T06:57:06;15.50;96.30
45765;DHT22;31474;45.332;10.230;2023-04-28T06:59:32;15.70;96.20
45765;DHT22;31474;45.332;10.230;2023-04-28T07:01:58;15.80;96.10
45765;DHT22;31474;45.332;10.230;2023-04-28T07:04:23;15.90;95.80
45765;DHT22;31474;45.332;10.230;2023-04-28T07:06:49;16.10;95.40
45765;DHT22;31474;45.332;10.230;2023-04-28T07:09:15;16.10;95.00
45765;DHT22;31474;45.332;10.230;2023-04-28T07:11:42;16.10;94.10
45765;DHT22;31474;45.332;10.230;2023-04-28T07:14:07;16.00;93.90
45765;DHT22;31474;45.332;10.230;2023-04-28T07:16:33;15.90;93.90
45765;DHT22;31474;45.332;10.230;2023-04-28T07:19:00;16.10;93.90
45765;DHT22;31474;45.332;10.230;2023-04-28T07:21:26;16.10;93.50
45765;DHT22;31474;45.332;10.230;2023-04-28T07:23:52;16.10;92.80
45765;DHT22;31474;45.332;10.230;2023-04-28T07:26:21;16.20;92.50
45765;DHT22;31474;45.332;10.230;2023-04-28T07:28:47;16.40;93.00
45765;DHT22;31474;45.332;10.230;2023-04-28T07:31:13;16.50;92.80
45765;DHT22;31474;45.332;10.230;2023-04-28T07:33:38;16.60;92.50
45765;DHT22;31474;45.332;10.230;2023-04-28T07:36:04;16.60;92.50
45765;DHT22;31474;45.332;10.230;2023-04-28T07:38:32;16.60;92.10
45765;DHT22;31474;45.332;10.230;2023-04-28T07:40:58;16.70;92.20
45765;DHT22;31474;45.332;10.230;2023-04-28T07:43:24;16.90;91.30
45765;DHT22;31474;45.332;10.230;2023-04-28T07:45:49;17.10;91.50
45765;DHT22;31474;45.332;10.230;2023-04-28T07:48:15;17.10;90.70
45765;DHT22;31474;45.332;10.230;2023-04-28T07:50:41;17.10;91.40
45765;DHT22;31474;45.332;10.230;2023-04-28T07:53:07;17.30;91.00
45765;DHT22;31474;45.332;10.230;2023-04-28T07:55:33;17.30;91.00
45765;DHT22;31474;45.332;10.230;2023-04-28T07:57:59;17.40;90.90
45765;DHT22;31474;45.332;10.230;2023-04-28T08:00:25;17.40;90.70
45765;DHT22;31474;45.332;10.230;2023-04-28T08:02:50;17.60;91.40
45765;DHT22;31474;45.332;10.230;2023-04-28T08:05:16;17.80;91.70
45765;DHT22;31474;45.332;10.230;2023-04-28T08:07:42;17.70;91.90
45765;DHT22;31474;45.332;10.230;2023-04-28T08:10:11;17.80;92.50
45765;DHT22;31474;45.332;10.230;2023-04-28T08:12:37;17.90;92.10
45765;DHT22;31474;45.332;10.230;2023-04-28T08:15:04;18.10;91.90
45765;DHT22;31474;45.332;10.230;2023-04-28T08:17:29;17.90;90.40
45765;DHT22;31474;45.332;10.230;2023-04-28T08:19:55;17.80;90.30
45765;DHT22;31474;45.332;10.230;2023-04-28T08:22:21;17.80;88.70
45765;DHT22;31474;45.332;10.230;2023-04-28T08:24:46;17.80;89.10
45765;DHT22;31474;45.332;10.230;2023-04-28T08:27:12;18.00;89.60
45765;DHT22;31474;45.332;10.230;2023-04-28T08:29:37;18.40;89.90
45765;DHT22;31474;45.332;10.230;2023-04-28T08:32:04;18.40;89.10
45765;DHT22;31474;45.332;10.230;2023-04-28T08:34:31;18.70;90.00
45765;DHT22;31474;45.332;10.230;2023-04-28T08:36:57;18.70;88.10
45765;DHT22;31474;45.332;10.230;2023-04-28T08:39:23;18.60;87.40
45765;DHT22;31474;45.332;10.230;2023-04-28T08:41:51;18.90;88.30
45765;DHT22;31474;45.332;10.230;2023-04-28T08:44:17;19.10;89.20
45765;DHT22;31474;45.332;10.230;2023-04-28T08:46:44;19.10;83.20
45765;DHT22;31474;45.332;10.230;2023-04-28T08:49:22;19.50;86.30
45765;DHT22;31474;45.332;10.230;2023-04-28T08:51:55;19.40;85.60
45765;DHT22;31474;45.332;10.230;2023-04-28T08:54:28;19.50;84.60
45765;DHT22;31474;45.332;10.230;2023-04-28T08:56:55;19.50;82.50
45765;DHT22;31474;45.332;10.230;2023-04-28T08:59:21;19.50;82.70
45765;DHT22;31474;45.332;10.230;2023-04-28T09:01:48;19.60;85.60
45765;DHT22;31474;45.332;10.230;2023-04-28T09:04:16;19.70;82.10
45765;DHT22;31474;45.332;10.230;2023-04-28T09:06:41;19.60;83.00
45765;DHT22;31474;45.332;10.230;2023-04-28T09:09:24;19.80;84.40
45765;DHT22;31474;45.332;10.230;2023-04-28T09:11:54;19.80;79.70
45765;DHT22;31474;45.332;10.230;2023-04-28T09:14:21;20.00;81.50
45765;DHT22;31474;45.332;10.230;2023-04-28T09:16:48;20.10;81.30
45765;DHT22;31474;45.332;10.230;2023-04-28T09:19:14;20.00;81.40
45765;DHT22;31474;45.332;10.230;2023-04-28T09:24:27;19.90;80.00
45765;DHT22;31474;45.332;10.230;2023-04-28T09:26:53;20.00;80.80
45765;DHT22;31474;45.332;10.230;2023-04-28T09:29:18;20.10;81.60
45765;DHT22;31474;45.332;10.230;2023-04-28T09:31:44;20.40;82.00
45765;DHT22;31474;45.332;10.230;2023-04-28T09:34:09;20.50;77.80
45765;DHT22;31474;45.332;10.230;2023-04-28T09:36:36;20.50;79.80
45765;DHT22;31474;45.332;10.230;2023-04-28T09:39:02;20.50;74.50
45765;DHT22;31474;45.332;10.230;2023-04-28T09:41:54;20.50;77.60
45765;DHT22;31474;45.332;10.230;2023-04-28T09:44:20;20.50;74.10
45765;DHT22;31474;45.332;10.230;2023-04-28T09:46:48;20.50;77.60
45765;DHT22;31474;45.332;10.230;2023-04-28T09:49:13;20.60;79.10
45765;DHT22;31474;45.332;10.230;2023-04-28T09:51:40;20.80;80.50
45765;DHT22;31474;45.332;10.230;2023-04-28T09:54:06;21.00;79.10
45765;DHT22;31474;45.332;10.230;2023-04-28T09:56:33;21.10;78.70
45765;DHT22;31474;45.332;10.230;2023-04-28T09:59:02;21.20;78.50
45765;DHT22;31474;45.332;10.230;2023-04-28T10:01:39;21.40;80.40
45765;DHT22;31474;45.332;10.230;2023-04-28T10:04:05;21.40;76.60
45765;DHT22;31474;45.332;10.230;2023-04-28T10:06:33;21.40;78.50
45765;DHT22;31474;45.332;10.230;2023-04-28T10:09:00;21.40;76.60
45765;DHT22;31474;45.332;10.230;2023-04-28T10:11:26;21.40;78.40
45765;DHT22;31474;45.332;10.230;2023-04-28T10:13:53;21.50;79.30
45765;DHT22;31474;45.332;10.230;2023-04-28T10:16:19;21.60;77.60
45765;DHT22;31474;45.332;10.230;2023-04-28T10:18:46;21.60;75.30
45765;DHT22;31474;45.332;10.230;2023-04-28T10:21:15;21.50;75.60
45765;DHT22;31474;45.332;10.230;2023-04-28T10:23:58;21.50;75.60
45765;DHT22;31474;45.332;10.230;2023-04-28T10:29:30;21.80;73.30
45765;DHT22;31474;45.332;10.230;2023-04-28T10:32:17;21.60;76.90
45765;DHT22;31474;45.332;10.230;2023-04-28T10:34:43;21.60;77.70
45765;DHT22;31474;45.332;10.230;2023-04-28T10:37:09;21.80;77.50
45765;DHT22;31474;45.332;10.230;2023-04-28T10:39:35;21.90;77.20
45765;DHT22;31474;45.332;10.230;2023-04-28T10:42:01;21.90;76.90
45765;DHT22;31474;45.332;10.230;2023-04-28T11:00:40;22.40;76.80
45765;DHT22;31474;45.332;10.230;2023-04-28T11:03:06;22.50;79.20
45765;DHT22;31474;45.332;10.230;2023-04-28T11:05:32;22.50;74.50
45765;DHT22;31474;45.332;10.230;2023-04-28T11:11:25;22.40;76.10
45765;DHT22;31474;45.332;10.230;2023-04-28T11:13:52;22.40;73.80
45765;DHT22;31474;45.332;10.230;2023-04-28T11:16:23;22.40;77.80
45765;DHT22;31474;45.332;10.230;2023-04-28T11:18:52;22.40;75.50
45765;DHT22;31474;45.332;10.230;2023-04-28T11:21:19;22.30;76.00
45765;DHT22;31474;45.332;10.230;2023-04-28T11:23:45;22.40;76.90
45765;DHT22;31474;45.332;10.230;2023-04-28T11:26:11;22.40;77.40
45765;DHT22;31474;45.332;10.230;2023-04-28T11:28:55;22.50;76.90
45765;DHT22;31474;45.332;10.230;2023-04-28T11:31:23;22.50;77.10
45765;DHT22;31474;45.332;10.230;2023-04-28T11:33:55;22.40;75.60
45765;DHT22;31474;45.332;10.230;2023-04-28T11:36:25;22.40;76.60
45765;DHT22;31474;45.332;10.230;2023-04-28T11:38:53;22.30;76.70
45765;DHT22;31474;45.332;10.230;2023-04-28T11:41:19;22.40;76.30
45765;DHT22;31474;45.332;10.230;2023-04-28T11:43:45;22.50;77.30
45765;DHT22;31474;45.332;10.230;2023-04-28T11:46:16;22.70;82.30
45765;DHT22;31474;45.332;10.230;2023-04-28T11:48:42;22.80;78.40
45765;DHT22;31474;45.332;10.230;2023-04-28T11:51:07;22.80;79.40
45765;DHT22;31474;45.332;10.230;2023-04-28T11:53:44;22.80;77.20
45765;DHT22;31474;45.332;10.230;2023-04-28T11:56:10;22.80;75.50
45765;DHT22;31474;45.332;10.230;2023-04-28T11:58:37;22.70;77.90
45765;DHT22;31474;45.332;10.230;2023-04-28T12:01:10;22.80;78.00
45765;DHT22;31474;45.332;10.230;2023-04-28T12:03:46;22.90;77.10
45765;DHT22;31474;45.332;10.230;2023-04-28T12:06:16;22.90;76.20
45765;DHT22;31474;45.332;10.230;2023-04-28T12:08:43;22.90;76.10
45765;DHT22;31474;45.332;10.230;2023-04-28T12:11:13;22.90;76.40
45765;DHT22;31474;45.332;10.230;2023-04-28T12:13:38;22.80;75.30
45765;DHT22;31474;45.332;10.230;2023-04-28T12:16:05;22.60;76.60
45765;DHT22;31474;45.332;10.230;2023-04-28T12:18:34;22.70;77.10
45765;DHT22;31474;45.332;10.230;2023-04-28T12:21:01;22.60;74.60
45765;DHT22;31474;45.332;10.230;2023-04-28T12:23:31;22.40;76.70
45765;DHT22;31474;45.332;10.230;2023-04-28T12:25:56;22.30;75.80
45765;DHT22;31474;45.332;10.230;2023-04-28T12:28:23;22.40;77.80
45765;DHT22;31474;45.332;10.230;2023-04-28T12:31:01;22.40;77.50
45765;DHT22;31474;45.332;10.230;2023-04-28T12:33:27;22.50;75.50
45765;DHT22;31474;45.332;10.230;2023-04-28T12:35:55;22.40;77.20
45765;DHT22;31474;45.332;10.230;2023-04-28T12:38:22;22.50;77.50
45765;DHT22;31474;45.332;10.230;2023-04-28T12:40:48;22.60;78.00
45765;DHT22;31474;45.332;10.230;2023-04-28T12:43:13;22.70;77.20
45765;DHT22;31474;45.332;10.230;2023-04-28T12:45:40;22.60;77.30
45765;DHT22;31474;45.332;10.230;2023-04-28T12:48:06;22.80;80.80
45765;DHT22;31474;45.332;10.230;2023-04-28T12:50:32;23.00;80.80
45765;DHT22;31474;45.332;10.230;2023-04-28T12:52:58;23.10;79.20
45765;DHT22;31474;45.332;10.230;2023-04-28T12:55:24;23.20;77.70
45765;DHT22;31474;45.332;10.230;2023-04-28T12:57:50;23.20;77.90
45765;DHT22;31474;45.332;10.230;2023-04-28T13:00:16;23.20;79.40
45765;DHT22;31474;45.332;10.230;2023-04-28T13:02:45;23.40;77.80
45765;DHT22;31474;45.332;10.230;2023-04-28T13:05:11;23.40;78.00
45765;DHT22;31474;45.332;10.230;2023-04-28T13:07:38;23.50;80.50
45765;DHT22;31474;45.332;10.230;2023-04-28T13:10:05;23.50;79.60
45765;DHT22;31474;45.332;10.230;2023-04-28T13:12:31;23.60;80.50
45765;DHT22;31474;45.332;10.230;2023-04-28T13:14:57;23.70;80.20
45765;DHT22;31474;45.332;10.230;2023-04-28T13:17:24;23.60;79.30
45765;DHT22;31474;45.332;10.230;2023-04-28T13:19:51;23.70;80.30
45765;DHT22;31474;45.332;10.230;2023-04-28T13:22:17;23.70;79.10
45765;DHT22;31474;45.332;10.230;2023-04-28T13:24:43;23.70;79.70
45765;DHT22;31474;45.332;10.230;2023-04-28T13:27:09;23.70;79.80
45765;DHT22;31474;45.332;10.230;2023-04-28T13:29:35;23.70;80.00
45765;DHT22;31474;45.332;10.230;2023-04-28T13:32:01;23.80;80.70
45765;DHT22;31474;45.332;10.230;2023-04-28T13:34:27;23.70;78.30
45765;DHT22;31474;45.332;10.230;2023-04-28T13:36:53;23.70;79.50
45765;DHT22;31474;45.332;10.230;2023-04-28T13:39:20;23.70;79.50
45765;DHT22;31474;45.332;10.230;2023-04-28T13:41:47;23.80;78.70
45765;DHT22;31474;45.332;10.230;2023-04-28T13:44:14;23.70;76.70
45765;DHT22;31474;45.332;10.230;2023-04-28T13:46:40;23.60;79.50
45765;DHT22;31474;45.332;10.230;2023-04-28T13:49:08;23.70;79.30
45765;DHT22;31474;45.332;10.230;2023-04-28T13:51:33;23.60;78.40
45765;DHT22;31474;45.332;10.230;2023-04-28T13:53:59;23.60;78.80
45765;DHT22;31474;45.332;10.230;2023-04-28T13:56:29;23.50;78.50
45765;DHT22;31474;45.332;10.230;2023-04-28T13:58:56;23.50;78.30
45765;DHT22;31474;45.332;10.230;2023-04-28T14:01:22;23.50;78.70
45765;DHT22;31474;45.332;10.230;2023-04-28T14:03:47;23.50;77.60
45765;DHT22;31474;45.332;10.230;2023-04-28T14:06:13;23.40;78.60
45765;DHT22;31474;45.332;10.230;2023-04-28T14:08:39;23.30;78.20
45765;DHT22;31474;45.332;10.230;2023-04-28T14:11:04;23.40;79.20
45765;DHT22;31474;45.332;10.230;2023-04-28T14:13:30;23.40;78.80
45765;DHT22;31474;45.332;10.230;2023-04-28T14:15:56;23.40;79.80
45765;DHT22;31474;45.332;10.230;2023-04-28T14:18:22;23.40;80.70
45765;DHT22;31474;45.332;10.230;2023-04-28T14:20:47;23.50;80.10
45765;DHT22;31474;45.332;10.230;2023-04-28T14:23:14;23.60;79.80
45765;DHT22;31474;45.332;10.230;2023-04-28T14:25:40;23.70;80.90
45765;DHT22;31474;45.332;10.230;2023-04-28T14:28:05;23.70;79.70
45765;DHT22;31474;45.332;10.230;2023-04-28T14:30:31;23.70;80.10
45765;DHT22;31474;45.332;10.230;2023-04-28T14:32:57;23.70;80.20
45765;DHT22;31474;45.332;10.230;2023-04-28T14:35:23;23.70;79.70
45765;DHT22;31474;45.332;10.230;2023-04-28T14:37:51;23.70;79.90
45765;DHT22;31474;45.332;10.230;2023-04-28T14:40:16;23.60;78.70
45765;DHT22;31474;45.332;10.230;2023-04-28T14:42:42;23.60;80.40
45765;DHT22;31474;45.332;10.230;2023-04-28T14:45:09;23.50;80.30
45765;DHT22;31474;45.332;10.230;2023-04-28T14:47:38;23.50;80.10
45765;DHT22;31474;45.332;10.230;2023-04-28T14:50:05;23.60;79.80
45765;DHT22;31474;45.332;10.230;2023-04-28T14:52:31;23.50;80.30
45765;DHT22;31474;45.332;10.230;2023-04-28T14:54:59;23.50;80.20
45765;DHT22;31474;45.332;10.230;2023-04-28T14:57:25;23.50;80.00
45765;DHT22;31474;45.332;10.230;2023-04-28T14:59:52;23.50;80.20
45765;DHT22;31474;45.332;10.230;2023-04-28T15:02:18;23.40;79.70
45765;DHT22;31474;45.332;10.230;2023-04-28T15:04:46;23.30;79.80
45765;DHT22;31474;45.332;10.230;2023-04-28T15:07:12;23.30;79.60
45765;DHT22;31474;45.332;10.230;2023-04-28T15:09:38;23.30;80.90
45765;DHT22;31474;45.332;10.230;2023-04-28T15:12:05;23.30;80.30
45765;DHT22;31474;45.332;10.230;2023-04-28T15:14:31;23.40;80.40
45765;DHT22;31474;45.332;10.230;2023-04-28T15:16:57;23.40;80.70
45765;DHT22;31474;45.332;10.230;2023-04-28T15:19:22;23.40;80.70
45765;DHT22;31474;45.332;10.230;2023-04-28T15:21:48;23.40;81.00
45765;DHT22;31474;45.332;10.230;2023-04-28T15:24:16;23.40;80.60
45765;DHT22;31474;45.332;10.230;2023-04-28T15:26:42;23.30;80.30
45765;DHT22;31474;45.332;10.230;2023-04-28T15:29:09;23.20;79.70
45765;DHT22;31474;45.332;10.230;2023-04-28T15:31:35;23.10;80.00
45765;DHT22;31474;45.332;10.230;2023-04-28T15:34:01;23.10;80.60
45765;DHT22;31474;45.332;10.230;2023-04-28T15:36:27;23.10;80.60